RJFKRJKA

Guest
Details From RJFK - KAGOSHIMA
To RJKA - AMAMI
Flight Number -
Tags generated
Created
Modified
Stats Distance 212 nm / 393 km
Max Altitude 26,400 ft / 8,047 m
Waypoints 4
Social Downloads 0
Likes 0
Share VATSIM

Download

Looking for another format? Having issues loading an existing format? Contact us
Advertisement - Login to hide

Notes

Basic altitude profile: - Ascent Rate: 2500ft/min - Ascent Speed: 250kts - Cruise Altitude: 35000ft - Cruise Speed: 420kts - Descent Rate: 1500ft/min - Descent Speed: 250kts Options: - Use NATs: yes - Use PACOTS: yes - Use low airways: yes - Use high airways: yes

Route

RJFK HKC80 A582 BOMAP RJKA

ID Type Via Altitude Latitude Longitude Leg Dist Tot Dist Heading (true) Name
O RJFK APT - 0 ft / 0 m 31.80340˚ 130.71941˚ - 0 nm - KAGOSHIMA
HKC80 FIX - 26,400 ft / 8,047 m 30.45689˚ 130.00509˚ 88 nm 88 nm 205° / 204° -
BOMAP FIX A582 (AWY-HI) 20,200 ft / 6,157 m 30.00366˚ 129.82446˚ 28 nm 117 nm 199° / 199° -
O RJKA APT - 0 ft / 0 m 28.43063˚ 129.71254˚ 94 nm 212 nm 184° / 184° AMAMI

Altitude Profile

Advertisement - Login to hide

Weather


0- 5 10 15 20 25 30 35+ Temperature / ° C

Clouds and Precipitation
Forecast for 2018-05-21 00:00 UTC. Updated 3 hours ago

Ground ~20,000 ft ~40,000 ft Winds

RJFK

Details ICAO RJFK (KOJ)
Name KAGOSHIMA
Region Japan
Timezone Asia/Tokyo (UTC+9.0)
Stats Elevation 906 ft / 276 m (AMSL)
Location 31.803400° 130.719405°
Runways 1
Magnetic Variation 6.945° W

METAR

RJFK 210200Z 08017G32KT 040V120 9999 FEW020 BKN080 18/12 Q1015 RMK 2CU020 7AC080 A2998

Decode

TAF

TAF RJFK 202305Z 2100/2206 08014KT 9999 FEW020 SCT030 BKN040 TEMPO 2100/2108 08015G28KT

Decode

Departure Runways

ID Width Length Bearing (true) Bearing (mag) Surface Threshold Offset Overrun Length
16 150 ft / 46 m 9,861 ft / 3,006 m 150.11° 157.05° Asphalt 0 ft / 0 m 200 ft / 61 m
34 150 ft / 46 m 9,861 ft / 3,006 m 330.11° 337.05° Asphalt 0 ft / 0 m 200 ft / 61 m

RJKA

Details ICAO RJKA (ASJ)
Name AMAMI
Region Japan
Timezone Asia/Tokyo (UTC+9.0)
Stats Elevation 27 ft / 8 m (AMSL)
Location 28.430635° 129.712543°
Runways 1
Magnetic Variation 5.939° W

METAR

RJKA 210200Z 03010KT 9999 FEW008 BKN025 27/24 Q1008

Decode

TAF

Not found

Destination Runways

ID Width Length Bearing (true) Bearing (mag) Surface Threshold Offset Overrun Length
03 150 ft / 46 m 6,576 ft / 2,004 m 25.83° 31.77° Asphalt 0 ft / 0 m 197 ft / 60 m
21 150 ft / 46 m 6,576 ft / 2,004 m 205.84° 211.78° Asphalt 0 ft / 0 m 193 ft / 59 m

Approach Navaids

Runway Type Ident Frequency Range Bearing (true) Bearing (mag) Slope Elevation
03 Localiser IAM 109.30 MHz 18 nm / 33 km 25.82° 31.76° - 31 ft / 9 m (AMSL)
03 Glidescope IAM 109.30 MHz 10 nm / 19 km 25.84° 31.78° 3.00° 31 ft / 9 m (AMSL)
03 DME IAM 109.30 MHz 18 nm / 33 km - - - 31 ft / 9 m (AMSL)

Popular Alternatives